sensor_id;sensor_type;location;lat;lon;timestamp;P1;durP1;ratioP1;P2;durP2;ratioP2
7479;SDS011;3781;42.272;22.658;2022-11-06T00:00:44;10.83;;;2.53;;
7479;SDS011;3781;42.272;22.658;2022-11-06T00:03:11;4.70;;;3.17;;
7479;SDS011;3781;42.272;22.658;2022-11-06T00:05:39;2.80;;;2.33;;
7479;SDS011;3781;42.272;22.658;2022-11-06T00:08:29;3.90;;;3.47;;
7479;SDS011;3781;42.272;22.658;2022-11-06T00:10:57;11.10;;;3.67;;
7479;SDS011;3781;42.272;22.658;2022-11-06T00:13:24;8.23;;;4.00;;
7479;SDS011;3781;42.272;22.658;2022-11-06T00:15:52;11.20;;;3.50;;
7479;SDS011;3781;42.272;22.658;2022-11-06T00:18:18;8.63;;;3.97;;
7479;SDS011;3781;42.272;22.658;2022-11-06T00:20:45;6.30;;;3.30;;
7479;SDS011;3781;42.272;22.658;2022-11-06T00:23:12;6.93;;;2.97;;
7479;SDS011;3781;42.272;22.658;2022-11-06T00:25:41;6.70;;;3.00;;
7479;SDS011;3781;42.272;22.658;2022-11-06T00:28:08;3.20;;;2.87;;
7479;SDS011;3781;42.272;22.658;2022-11-06T00:30:34;4.90;;;3.03;;
7479;SDS011;3781;42.272;22.658;2022-11-06T00:33:01;6.60;;;3.57;;
7479;SDS011;3781;42.272;22.658;2022-11-06T00:35:28;6.20;;;2.27;;
7479;SDS011;3781;42.272;22.658;2022-11-06T00:37:55;5.17;;;2.83;;
7479;SDS011;3781;42.272;22.658;2022-11-06T00:40:21;4.37;;;3.73;;
7479;SDS011;3781;42.272;22.658;2022-11-06T00:42:53;4.67;;;2.17;;
7479;SDS011;3781;42.272;22.658;2022-11-06T00:45:21;4.10;;;2.23;;
7479;SDS011;3781;42.272;22.658;2022-11-06T00:47:48;9.20;;;2.23;;
7479;SDS011;3781;42.272;22.658;2022-11-06T00:50:14;7.60;;;2.93;;
7479;SDS011;3781;42.272;22.658;2022-11-06T00:52:42;5.07;;;2.83;;
7479;SDS011;3781;42.272;22.658;2022-11-06T00:55:09;6.67;;;2.63;;
7479;SDS011;3781;42.272;22.658;2022-11-06T00:57:36;7.27;;;3.33;;
7479;SDS011;3781;42.272;22.658;2022-11-06T01:00:04;4.37;;;3.10;;
7479;SDS011;3781;42.272;22.658;2022-11-06T01:02:32;6.57;;;2.57;;
7479;SDS011;3781;42.272;22.658;2022-11-06T01:04:59;5.17;;;2.93;;
7479;SDS011;3781;42.272;22.658;2022-11-06T01:07:26;7.23;;;2.77;;
7479;SDS011;3781;42.272;22.658;2022-11-06T01:09:53;4.70;;;2.53;;
7479;SDS011;3781;42.272;22.658;2022-11-06T01:12:19;5.17;;;2.77;;
7479;SDS011;3781;42.272;22.658;2022-11-06T01:14:46;12.60;;;2.40;;
7479;SDS011;3781;42.272;22.658;2022-11-06T01:17:15;5.93;;;3.23;;
7479;SDS011;3781;42.272;22.658;2022-11-06T01:19:41;5.80;;;2.47;;
7479;SDS011;3781;42.272;22.658;2022-11-06T01:22:08;6.43;;;3.87;;
7479;SDS011;3781;42.272;22.658;2022-11-06T01:24:35;14.83;;;7.07;;
7479;SDS011;3781;42.272;22.658;2022-11-06T01:27:02;4.23;;;3.63;;
7479;SDS011;3781;42.272;22.658;2022-11-06T01:29:29;7.83;;;3.80;;
7479;SDS011;3781;42.272;22.658;2022-11-06T01:31:56;6.83;;;3.00;;
7479;SDS011;3781;42.272;22.658;2022-11-06T01:34:24;5.00;;;3.43;;
7479;SDS011;3781;42.272;22.658;2022-11-06T01:36:51;2.13;;;2.03;;
7479;SDS011;3781;42.272;22.658;2022-11-06T01:39:18;3.50;;;1.73;;
7479;SDS011;3781;42.272;22.658;2022-11-06T01:41:46;6.23;;;3.27;;
7479;SDS011;3781;42.272;22.658;2022-11-06T01:47:28;7.03;;;2.63;;
7479;SDS011;3781;42.272;22.658;2022-11-06T01:50:03;2.73;;;2.50;;
7479;SDS011;3781;42.272;22.658;2022-11-06T01:52:32;7.43;;;4.13;;
7479;SDS011;3781;42.272;22.658;2022-11-06T01:55:01;2.63;;;1.87;;
7479;SDS011;3781;42.272;22.658;2022-11-06T01:57:34;4.10;;;2.80;;
7479;SDS011;3781;42.272;22.658;2022-11-06T02:00:02;12.73;;;2.70;;
7479;SDS011;3781;42.272;22.658;2022-11-06T02:02:30;6.00;;;2.80;;
7479;SDS011;3781;42.272;22.658;2022-11-06T02:04:59;3.90;;;2.87;;
7479;SDS011;3781;42.272;22.658;2022-11-06T02:07:26;6.53;;;3.00;;
7479;SDS011;3781;42.272;22.658;2022-11-06T02:09:53;4.43;;;2.50;;
7479;SDS011;3781;42.272;22.658;2022-11-06T02:12:22;10.47;;;3.50;;
7479;SDS011;3781;42.272;22.658;2022-11-06T02:14:59;3.13;;;2.47;;
7479;SDS011;3781;42.272;22.658;2022-11-06T02:17:35;4.43;;;2.67;;
7479;SDS011;3781;42.272;22.658;2022-11-06T02:20:14;5.33;;;2.87;;
7479;SDS011;3781;42.272;22.658;2022-11-06T02:22:51;4.63;;;3.23;;
7479;SDS011;3781;42.272;22.658;2022-11-06T02:25:32;2.80;;;2.60;;
7479;SDS011;3781;42.272;22.658;2022-11-06T02:28:11;2.43;;;2.23;;
7479;SDS011;3781;42.272;22.658;2022-11-06T02:30:43;3.47;;;1.90;;
7479;SDS011;3781;42.272;22.658;2022-11-06T02:33:13;12.73;;;3.50;;
7479;SDS011;3781;42.272;22.658;2022-11-06T02:35:44;6.20;;;2.17;;
7479;SDS011;3781;42.272;22.658;2022-11-06T02:38:15;6.90;;;2.20;;
7479;SDS011;3781;42.272;22.658;2022-11-06T02:40:46;3.43;;;3.13;;
7479;SDS011;3781;42.272;22.658;2022-11-06T02:43:18;4.30;;;3.27;;
7479;SDS011;3781;42.272;22.658;2022-11-06T02:45:47;2.63;;;2.13;;
7479;SDS011;3781;42.272;22.658;2022-11-06T02:48:20;14.30;;;3.10;;
7479;SDS011;3781;42.272;22.658;2022-11-06T02:50:51;4.97;;;2.90;;
7479;SDS011;3781;42.272;22.658;2022-11-06T02:53:22;3.80;;;2.77;;
7479;SDS011;3781;42.272;22.658;2022-11-06T02:55:52;3.10;;;2.20;;
7479;SDS011;3781;42.272;22.658;2022-11-06T02:58:23;2.90;;;2.63;;
7479;SDS011;3781;42.272;22.658;2022-11-06T03:00:57;5.60;;;3.03;;
7479;SDS011;3781;42.272;22.658;2022-11-06T03:03:29;6.57;;;3.10;;
7479;SDS011;3781;42.272;22.658;2022-11-06T03:05:59;6.23;;;2.87;;
7479;SDS011;3781;42.272;22.658;2022-11-06T03:08:32;5.00;;;3.30;;
7479;SDS011;3781;42.272;22.658;2022-11-06T03:11:03;4.80;;;2.30;;
7479;SDS011;3781;42.272;22.658;2022-11-06T03:13:41;2.90;;;1.80;;
7479;SDS011;3781;42.272;22.658;2022-11-06T03:16:17;7.37;;;2.33;;
7479;SDS011;3781;42.272;22.658;2022-11-06T03:18:53;2.57;;;2.37;;
7479;SDS011;3781;42.272;22.658;2022-11-06T03:21:26;2.63;;;2.03;;
7479;SDS011;3781;42.272;22.658;2022-11-06T03:24:00;4.27;;;3.00;;
7479;SDS011;3781;42.272;22.658;2022-11-06T03:26:34;8.97;;;2.17;;
7479;SDS011;3781;42.272;22.658;2022-11-06T03:29:08;7.20;;;3.17;;
7479;SDS011;3781;42.272;22.658;2022-11-06T03:31:39;10.67;;;3.20;;
7479;SDS011;3781;42.272;22.658;2022-11-06T03:34:14;3.83;;;2.77;;
7479;SDS011;3781;42.272;22.658;2022-11-06T03:36:51;7.33;;;2.90;;
7479;SDS011;3781;42.272;22.658;2022-11-06T03:39:25;4.77;;;2.37;;
7479;SDS011;3781;42.272;22.658;2022-11-06T03:41:55;3.07;;;2.77;;
7479;SDS011;3781;42.272;22.658;2022-11-06T03:44:28;4.43;;;2.53;;
7479;SDS011;3781;42.272;22.658;2022-11-06T03:46:59;2.17;;;1.63;;
7479;SDS011;3781;42.272;22.658;2022-11-06T03:49:29;3.80;;;2.97;;
7479;SDS011;3781;42.272;22.658;2022-11-06T03:52:02;2.73;;;2.53;;
7479;SDS011;3781;42.272;22.658;2022-11-06T03:54:34;2.73;;;2.40;;
7479;SDS011;3781;42.272;22.658;2022-11-06T03:57:06;9.47;;;3.03;;
7479;SDS011;3781;42.272;22.658;2022-11-06T03:59:38;6.93;;;2.27;;
7479;SDS011;3781;42.272;22.658;2022-11-06T04:02:09;6.30;;;2.57;;
7479;SDS011;3781;42.272;22.658;2022-11-06T04:04:40;3.40;;;2.63;;
7479;SDS011;3781;42.272;22.658;2022-11-06T04:07:12;7.80;;;2.70;;
7479;SDS011;3781;42.272;22.658;2022-11-06T04:09:41;2.47;;;2.13;;
7479;SDS011;3781;42.272;22.658;2022-11-06T04:12:31;3.57;;;2.07;;
7479;SDS011;3781;42.272;22.658;2022-11-06T04:15:24;4.47;;;1.73;;
7479;SDS011;3781;42.272;22.658;2022-11-06T04:17:52;5.37;;;2.50;;
7479;SDS011;3781;42.272;22.658;2022-11-06T04:20:19;5.33;;;2.53;;
7479;SDS011;3781;42.272;22.658;2022-11-06T04:23:07;6.67;;;2.93;;
7479;SDS011;3781;42.272;22.658;2022-11-06T04:25:42;7.53;;;3.00;;
7479;SDS011;3781;42.272;22.658;2022-11-06T04:28:40;2.27;;;2.00;;
7479;SDS011;3781;42.272;22.658;2022-11-06T04:31:17;5.67;;;2.67;;
7479;SDS011;3781;42.272;22.658;2022-11-06T04:33:54;4.67;;;2.13;;
7479;SDS011;3781;42.272;22.658;2022-11-06T04:36:29;2.23;;;1.50;;
7479;SDS011;3781;42.272;22.658;2022-11-06T04:39:05;6.30;;;1.90;;
7479;SDS011;3781;42.272;22.658;2022-11-06T04:41:44;4.03;;;1.63;;
7479;SDS011;3781;42.272;22.658;2022-11-06T04:44:22;2.50;;;1.67;;
7479;SDS011;3781;42.272;22.658;2022-11-06T04:46:53;2.93;;;1.87;;
7479;SDS011;3781;42.272;22.658;2022-11-06T04:49:22;3.20;;;2.37;;
7479;SDS011;3781;42.272;22.658;2022-11-06T04:51:52;5.37;;;2.83;;
7479;SDS011;3781;42.272;22.658;2022-11-06T04:54:19;3.80;;;2.27;;
7479;SDS011;3781;42.272;22.658;2022-11-06T04:56:47;7.03;;;2.63;;
7479;SDS011;3781;42.272;22.658;2022-11-06T04:59:14;9.63;;;3.40;;
7479;SDS011;3781;42.272;22.658;2022-11-06T05:01:43;4.70;;;3.03;;
7479;SDS011;3781;42.272;22.658;2022-11-06T05:04:11;1.73;;;1.63;;
7479;SDS011;3781;42.272;22.658;2022-11-06T05:06:38;3.60;;;2.30;;
7479;SDS011;3781;42.272;22.658;2022-11-06T05:09:05;4.97;;;2.77;;
7479;SDS011;3781;42.272;22.658;2022-11-06T05:11:31;2.07;;;1.97;;
7479;SDS011;3781;42.272;22.658;2022-11-06T05:13:58;4.80;;;2.03;;
7479;SDS011;3781;42.272;22.658;2022-11-06T05:16:25;7.43;;;2.67;;
7479;SDS011;3781;42.272;22.658;2022-11-06T05:18:52;3.20;;;2.17;;
7479;SDS011;3781;42.272;22.658;2022-11-06T05:21:20;2.27;;;1.57;;
7479;SDS011;3781;42.272;22.658;2022-11-06T05:24:19;4.67;;;2.30;;
7479;SDS011;3781;42.272;22.658;2022-11-06T05:26:45;7.77;;;3.90;;
7479;SDS011;3781;42.272;22.658;2022-11-06T05:29:12;4.33;;;3.27;;
7479;SDS011;3781;42.272;22.658;2022-11-06T05:31:39;6.17;;;2.57;;
7479;SDS011;3781;42.272;22.658;2022-11-06T05:34:06;8.60;;;2.90;;
7479;SDS011;3781;42.272;22.658;2022-11-06T05:36:34;4.70;;;2.27;;
7479;SDS011;3781;42.272;22.658;2022-11-06T05:39:01;2.40;;;2.20;;
7479;SDS011;3781;42.272;22.658;2022-11-06T05:41:28;4.60;;;2.03;;
7479;SDS011;3781;42.272;22.658;2022-11-06T05:43:55;9.90;;;2.77;;
7479;SDS011;3781;42.272;22.658;2022-11-06T05:46:22;10.53;;;2.73;;
7479;SDS011;3781;42.272;22.658;2022-11-06T05:48:49;3.37;;;2.10;;
7479;SDS011;3781;42.272;22.658;2022-11-06T05:51:16;1.73;;;1.63;;
7479;SDS011;3781;42.272;22.658;2022-11-06T05:53:45;3.97;;;2.27;;
7479;SDS011;3781;42.272;22.658;2022-11-06T05:56:12;6.37;;;2.30;;
7479;SDS011;3781;42.272;22.658;2022-11-06T05:58:39;3.43;;;2.33;;
7479;SDS011;3781;42.272;22.658;2022-11-06T06:01:05;7.13;;;2.93;;
7479;SDS011;3781;42.272;22.658;2022-11-06T06:03:32;6.87;;;2.67;;
7479;SDS011;3781;42.272;22.658;2022-11-06T06:05:59;4.33;;;2.53;;
7479;SDS011;3781;42.272;22.658;2022-11-06T06:08:25;4.83;;;2.20;;
7479;SDS011;3781;42.272;22.658;2022-11-06T06:10:54;8.37;;;2.97;;
7479;SDS011;3781;42.272;22.658;2022-11-06T06:13:20;5.73;;;2.43;;
7479;SDS011;3781;42.272;22.658;2022-11-06T06:15:47;4.37;;;2.40;;
7479;SDS011;3781;42.272;22.658;2022-11-06T06:18:14;6.43;;;3.23;;
7479;SDS011;3781;42.272;22.658;2022-11-06T06:20:41;4.73;;;2.47;;
7479;SDS011;3781;42.272;22.658;2022-11-06T06:23:08;2.27;;;1.97;;
7479;SDS011;3781;42.272;22.658;2022-11-06T06:25:35;20.83;;;2.87;;
7479;SDS011;3781;42.272;22.658;2022-11-06T06:28:03;5.17;;;2.50;;
7479;SDS011;3781;42.272;22.658;2022-11-06T06:30:30;7.10;;;3.50;;
7479;SDS011;3781;42.272;22.658;2022-11-06T06:33:01;3.53;;;3.23;;
7479;SDS011;3781;42.272;22.658;2022-11-06T06:35:29;3.87;;;2.30;;
7479;SDS011;3781;42.272;22.658;2022-11-06T06:37:56;7.50;;;2.50;;
7479;SDS011;3781;42.272;22.658;2022-11-06T06:40:23;5.57;;;3.30;;
7479;SDS011;3781;42.272;22.658;2022-11-06T06:42:51;4.20;;;3.07;;
7479;SDS011;3781;42.272;22.658;2022-11-06T06:45:22;4.13;;;2.87;;
7479;SDS011;3781;42.272;22.658;2022-11-06T06:47:49;3.33;;;2.83;;
7479;SDS011;3781;42.272;22.658;2022-11-06T06:50:16;5.37;;;3.60;;
7479;SDS011;3781;42.272;22.658;2022-11-06T06:52:43;5.93;;;4.03;;
7479;SDS011;3781;42.272;22.658;2022-11-06T06:55:10;5.93;;;3.17;;
7479;SDS011;3781;42.272;22.658;2022-11-06T06:57:37;9.90;;;3.97;;
7479;SDS011;3781;42.272;22.658;2022-11-06T07:00:04;7.20;;;2.83;;
7479;SDS011;3781;42.272;22.658;2022-11-06T07:02:32;4.33;;;2.37;;
7479;SDS011;3781;42.272;22.658;2022-11-06T07:04:59;4.27;;;2.77;;
7479;SDS011;3781;42.272;22.658;2022-11-06T07:07:26;7.53;;;3.03;;
7479;SDS011;3781;42.272;22.658;2022-11-06T07:09:53;10.63;;;2.37;;
7479;SDS011;3781;42.272;22.658;2022-11-06T07:12:19;6.37;;;3.90;;
7479;SDS011;3781;42.272;22.658;2022-11-06T07:14:46;5.03;;;3.03;;
7479;SDS011;3781;42.272;22.658;2022-11-06T07:17:13;2.80;;;2.60;;
7479;SDS011;3781;42.272;22.658;2022-11-06T07:19:42;4.00;;;2.50;;
7479;SDS011;3781;42.272;22.658;2022-11-06T07:22:08;8.60;;;4.80;;
7479;SDS011;3781;42.272;22.658;2022-11-06T07:24:35;4.80;;;3.43;;
7479;SDS011;3781;42.272;22.658;2022-11-06T07:27:02;5.87;;;2.40;;
7479;SDS011;3781;42.272;22.658;2022-11-06T07:29:29;5.40;;;1.93;;
7479;SDS011;3781;42.272;22.658;2022-11-06T07:31:56;8.63;;;3.30;;
7479;SDS011;3781;42.272;22.658;2022-11-06T07:34:23;4.57;;;2.20;;
7479;SDS011;3781;42.272;22.658;2022-11-06T07:36:51;6.57;;;3.47;;
7479;SDS011;3781;42.272;22.658;2022-11-06T07:39:18;8.03;;;4.63;;
7479;SDS011;3781;42.272;22.658;2022-11-06T07:41:45;10.00;;;4.67;;
7479;SDS011;3781;42.272;22.658;2022-11-06T07:44:12;14.17;;;6.33;;
7479;SDS011;3781;42.272;22.658;2022-11-06T07:46:39;9.87;;;4.87;;
7479;SDS011;3781;42.272;22.658;2022-11-06T07:49:05;6.67;;;3.87;;
7479;SDS011;3781;42.272;22.658;2022-11-06T07:51:32;14.67;;;2.97;;
7479;SDS011;3781;42.272;22.658;2022-11-06T07:54:00;6.57;;;5.70;;
7479;SDS011;3781;42.272;22.658;2022-11-06T07:56:27;5.83;;;3.73;;
7479;SDS011;3781;42.272;22.658;2022-11-06T07:58:54;16.07;;;4.93;;
7479;SDS011;3781;42.272;22.658;2022-11-06T08:01:20;13.30;;;4.70;;
7479;SDS011;3781;42.272;22.658;2022-11-06T08:03:47;8.33;;;4.57;;
7479;SDS011;3781;42.272;22.658;2022-11-06T08:06:14;9.73;;;4.13;;
7479;SDS011;3781;42.272;22.658;2022-11-06T08:08:41;10.27;;;4.80;;
7479;SDS011;3781;42.272;22.658;2022-11-06T08:11:09;5.30;;;3.13;;
7479;SDS011;3781;42.272;22.658;2022-11-06T08:13:37;5.73;;;3.07;;
7479;SDS011;3781;42.272;22.658;2022-11-06T08:16:04;7.87;;;4.40;;
7479;SDS011;3781;42.272;22.658;2022-11-06T08:18:32;6.33;;;3.90;;
7479;SDS011;3781;42.272;22.658;2022-11-06T08:21:00;4.17;;;3.23;;
7479;SDS011;3781;42.272;22.658;2022-11-06T08:23:27;5.73;;;3.13;;
7479;SDS011;3781;42.272;22.658;2022-11-06T08:25:54;7.07;;;4.57;;
7479;SDS011;3781;42.272;22.658;2022-11-06T08:28:23;11.13;;;5.43;;
7479;SDS011;3781;42.272;22.658;2022-11-06T08:30:50;6.17;;;4.20;;
7479;SDS011;3781;42.272;22.658;2022-11-06T08:33:18;9.03;;;4.43;;
7479;SDS011;3781;42.272;22.658;2022-11-06T08:35:45;11.70;;;4.70;;
7479;SDS011;3781;42.272;22.658;2022-11-06T08:38:12;11.53;;;7.77;;
7479;SDS011;3781;42.272;22.658;2022-11-06T08:40:39;16.90;;;7.50;;
7479;SDS011;3781;42.272;22.658;2022-11-06T08:43:07;38.13;;;14.47;;
7479;SDS011;3781;42.272;22.658;2022-11-06T08:45:37;21.93;;;10.90;;
7479;SDS011;3781;42.272;22.658;2022-11-06T08:48:05;29.23;;;11.13;;
7479;SDS011;3781;42.272;22.658;2022-11-06T08:50:32;27.10;;;11.37;;
7479;SDS011;3781;42.272;22.658;2022-11-06T08:53:00;23.43;;;8.83;;
7479;SDS011;3781;42.272;22.658;2022-11-06T08:55:30;17.30;;;8.03;;
7479;SDS011;3781;42.272;22.658;2022-11-06T08:57:57;19.60;;;9.50;;
7479;SDS011;3781;42.272;22.658;2022-11-06T09:00:25;22.10;;;9.57;;
7479;SDS011;3781;42.272;22.658;2022-11-06T09:02:57;22.87;;;10.40;;
7479;SDS011;3781;42.272;22.658;2022-11-06T09:05:24;22.97;;;11.87;;
7479;SDS011;3781;42.272;22.658;2022-11-06T09:07:51;17.27;;;9.33;;
7479;SDS011;3781;42.272;22.658;2022-11-06T09:10:18;25.40;;;10.43;;
7479;SDS011;3781;42.272;22.658;2022-11-06T09:12:45;20.93;;;9.73;;
7479;SDS011;3781;42.272;22.658;2022-11-06T09:15:12;18.17;;;9.37;;
7479;SDS011;3781;42.272;22.658;2022-11-06T09:17:41;14.67;;;8.27;;
7479;SDS011;3781;42.272;22.658;2022-11-06T09:20:09;17.90;;;9.77;;
7479;SDS011;3781;42.272;22.658;2022-11-06T09:22:37;17.93;;;7.67;;
7479;SDS011;3781;42.272;22.658;2022-11-06T09:25:04;10.23;;;6.40;;
7479;SDS011;3781;42.272;22.658;2022-11-06T09:27:32;16.97;;;7.57;;
7479;SDS011;3781;42.272;22.658;2022-11-06T09:30:06;15.20;;;7.67;;
7479;SDS011;3781;42.272;22.658;2022-11-06T09:32:34;19.13;;;7.53;;
7479;SDS011;3781;42.272;22.658;2022-11-06T09:35:00;18.00;;;7.40;;
7479;SDS011;3781;42.272;22.658;2022-11-06T09:37:29;11.17;;;6.47;;
7479;SDS011;3781;42.272;22.658;2022-11-06T09:39:55;11.10;;;4.93;;
7479;SDS011;3781;42.272;22.658;2022-11-06T09:42:24;11.33;;;4.90;;
7479;SDS011;3781;42.272;22.658;2022-11-06T09:45:06;12.53;;;7.43;;
7479;SDS011;3781;42.272;22.658;2022-11-06T09:47:39;10.60;;;6.17;;
7479;SDS011;3781;42.272;22.658;2022-11-06T09:50:14;11.27;;;4.80;;
7479;SDS011;3781;42.272;22.658;2022-11-06T09:52:47;7.07;;;3.97;;
7479;SDS011;3781;42.272;22.658;2022-11-06T09:55:19;5.13;;;4.17;;
7479;SDS011;3781;42.272;22.658;2022-11-06T09:57:50;11.37;;;5.20;;
7479;SDS011;3781;42.272;22.658;2022-11-06T10:00:19;11.33;;;6.87;;
7479;SDS011;3781;42.272;22.658;2022-11-06T10:02:47;23.13;;;10.20;;
7479;SDS011;3781;42.272;22.658;2022-11-06T10:05:18;19.97;;;9.10;;
7479;SDS011;3781;42.272;22.658;2022-11-06T10:07:53;16.50;;;6.97;;
7479;SDS011;3781;42.272;22.658;2022-11-06T10:10:24;13.30;;;6.47;;
7479;SDS011;3781;42.272;22.658;2022-11-06T10:12:59;15.00;;;7.17;;
7479;SDS011;3781;42.272;22.658;2022-11-06T10:15:32;6.57;;;4.93;;
7479;SDS011;3781;42.272;22.658;2022-11-06T10:18:04;9.73;;;4.50;;
7479;SDS011;3781;42.272;22.658;2022-11-06T10:20:39;8.07;;;3.07;;
7479;SDS011;3781;42.272;22.658;2022-11-06T10:23:15;9.57;;;4.87;;
7479;SDS011;3781;42.272;22.658;2022-11-06T10:25:47;5.00;;;2.80;;
7479;SDS011;3781;42.272;22.658;2022-11-06T10:28:33;6.97;;;3.63;;
7479;SDS011;3781;42.272;22.658;2022-11-06T10:31:18;2.60;;;2.37;;
7479;SDS011;3781;42.272;22.658;2022-11-06T10:33:54;4.50;;;3.13;;
7479;SDS011;3781;42.272;22.658;2022-11-06T10:36:27;7.57;;;2.53;;
7479;SDS011;3781;42.272;22.658;2022-11-06T10:39:01;7.10;;;3.17;;
7479;SDS011;3781;42.272;22.658;2022-11-06T10:41:30;7.97;;;3.50;;
7479;SDS011;3781;42.272;22.658;2022-11-06T10:44:03;6.53;;;3.57;;
7479;SDS011;3781;42.272;22.658;2022-11-06T10:46:34;6.23;;;2.90;;
7479;SDS011;3781;42.272;22.658;2022-11-06T10:49:04;11.60;;;3.50;;
7479;SDS011;3781;42.272;22.658;2022-11-06T10:51:56;5.70;;;3.17;;
7479;SDS011;3781;42.272;22.658;2022-11-06T10:54:44;3.83;;;3.00;;
7479;SDS011;3781;42.272;22.658;2022-11-06T10:57:20;5.93;;;3.23;;
7479;SDS011;3781;42.272;22.658;2022-11-06T10:59:53;3.97;;;2.87;;
7479;SDS011;3781;42.272;22.658;2022-11-06T11:02:22;5.73;;;3.17;;
7479;SDS011;3781;42.272;22.658;2022-11-06T11:04:53;4.97;;;2.30;;
7479;SDS011;3781;42.272;22.658;2022-11-06T11:07:20;5.83;;;2.63;;
7479;SDS011;3781;42.272;22.658;2022-11-06T11:09:49;4.00;;;2.80;;
7479;SDS011;3781;42.272;22.658;2022-11-06T11:12:20;7.23;;;3.47;;
7479;SDS011;3781;42.272;22.658;2022-11-06T11:15:05;9.20;;;3.63;;
7479;SDS011;3781;42.272;22.658;2022-11-06T11:17:37;2.83;;;2.40;;
7479;SDS011;3781;42.272;22.658;2022-11-06T11:20:11;9.67;;;2.87;;
7479;SDS011;3781;42.272;22.658;2022-11-06T11:23:03;1.87;;;1.67;;
7479;SDS011;3781;42.272;22.658;2022-11-06T11:25:32;2.77;;;2.10;;
7479;SDS011;3781;42.272;22.658;2022-11-06T11:27:59;3.50;;;2.77;;
7479;SDS011;3781;42.272;22.658;2022-11-06T11:30:26;4.37;;;2.50;;
7479;SDS011;3781;42.272;22.658;2022-11-06T11:32:53;5.97;;;2.90;;
7479;SDS011;3781;42.272;22.658;2022-11-06T11:35:23;9.33;;;3.27;;
7479;SDS011;3781;42.272;22.658;2022-11-06T11:37:55;3.73;;;2.50;;
7479;SDS011;3781;42.272;22.658;2022-11-06T11:40:34;4.17;;;2.57;;
7479;SDS011;3781;42.272;22.658;2022-11-06T11:43:14;3.23;;;2.67;;
7479;SDS011;3781;42.272;22.658;2022-11-06T11:45:57;3.53;;;2.60;;
7479;SDS011;3781;42.272;22.658;2022-11-06T11:48:43;4.83;;;2.70;;
7479;SDS011;3781;42.272;22.658;2022-11-06T11:51:12;6.23;;;3.20;;
7479;SDS011;3781;42.272;22.658;2022-11-06T11:53:46;3.83;;;2.93;;
7479;SDS011;3781;42.272;22.658;2022-11-06T11:56:15;5.07;;;2.97;;
7479;SDS011;3781;42.272;22.658;2022-11-06T11:58:47;4.90;;;2.60;;
7479;SDS011;3781;42.272;22.658;2022-11-06T12:01:16;5.57;;;2.47;;
7479;SDS011;3781;42.272;22.658;2022-11-06T12:03:45;6.27;;;3.23;;
7479;SDS011;3781;42.272;22.658;2022-11-06T12:06:17;5.27;;;2.83;;
7479;SDS011;3781;42.272;22.658;2022-11-06T12:08:45;2.67;;;2.47;;
7479;SDS011;3781;42.272;22.658;2022-11-06T12:11:19;4.07;;;2.97;;
7479;SDS011;3781;42.272;22.658;2022-11-06T12:17:01;6.37;;;2.27;;
7479;SDS011;3781;42.272;22.658;2022-11-06T12:19:33;3.67;;;2.30;;
7479;SDS011;3781;42.272;22.658;2022-11-06T12:22:04;2.77;;;2.00;;
7479;SDS011;3781;42.272;22.658;2022-11-06T12:24:38;2.30;;;2.10;;
7479;SDS011;3781;42.272;22.658;2022-11-06T12:27:14;2.60;;;2.40;;
7479;SDS011;3781;42.272;22.658;2022-11-06T12:29:44;3.63;;;2.47;;
7479;SDS011;3781;42.272;22.658;2022-11-06T12:32:18;3.53;;;2.37;;
7479;SDS011;3781;42.272;22.658;2022-11-06T12:34:53;2.87;;;2.13;;
7479;SDS011;3781;42.272;22.658;2022-11-06T12:37:28;2.33;;;2.17;;
7479;SDS011;3781;42.272;22.658;2022-11-06T12:40:11;6.43;;;1.77;;
7479;SDS011;3781;42.272;22.658;2022-11-06T12:42:47;3.03;;;2.50;;
7479;SDS011;3781;42.272;22.658;2022-11-06T12:45:24;4.30;;;3.07;;
7479;SDS011;3781;42.272;22.658;2022-11-06T12:48:01;2.93;;;2.73;;
7479;SDS011;3781;42.272;22.658;2022-11-06T12:50:37;1.60;;;1.50;;
7479;SDS011;3781;42.272;22.658;2022-11-06T12:53:15;3.37;;;1.63;;
7479;SDS011;3781;42.272;22.658;2022-11-06T12:55:50;1.83;;;1.73;;
7479;SDS011;3781;42.272;22.658;2022-11-06T12:58:38;3.40;;;2.47;;
7479;SDS011;3781;42.272;22.658;2022-11-06T13:01:15;2.77;;;2.53;;
7479;SDS011;3781;42.272;22.658;2022-11-06T13:03:59;3.47;;;3.17;;
7479;SDS011;3781;42.272;22.658;2022-11-06T13:06:39;3.43;;;2.30;;
7479;SDS011;3781;42.272;22.658;2022-11-06T13:09:25;2.37;;;1.93;;
7479;SDS011;3781;42.272;22.658;2022-11-06T13:11:56;3.37;;;2.20;;
7479;SDS011;3781;42.272;22.658;2022-11-06T13:14:33;5.53;;;2.83;;
7479;SDS011;3781;42.272;22.658;2022-11-06T13:17:07;6.47;;;3.10;;
7479;SDS011;3781;42.272;22.658;2022-11-06T13:19:41;6.83;;;3.00;;
7479;SDS011;3781;42.272;22.658;2022-11-06T13:22:16;6.93;;;3.27;;
7479;SDS011;3781;42.272;22.658;2022-11-06T13:24:50;3.00;;;2.40;;
7479;SDS011;3781;42.272;22.658;2022-11-06T13:27:23;2.03;;;1.80;;
7479;SDS011;3781;42.272;22.658;2022-11-06T13:29:58;2.20;;;1.77;;
7479;SDS011;3781;42.272;22.658;2022-11-06T13:32:28;1.60;;;1.50;;
7479;SDS011;3781;42.272;22.658;2022-11-06T13:34:57;4.40;;;2.07;;
7479;SDS011;3781;42.272;22.658;2022-11-06T13:37:30;6.83;;;2.47;;
7479;SDS011;3781;42.272;22.658;2022-11-06T13:40:05;5.87;;;4.03;;
7479;SDS011;3781;42.272;22.658;2022-11-06T13:42:44;5.93;;;4.13;;
7479;SDS011;3781;42.272;22.658;2022-11-06T13:45:16;2.70;;;2.27;;
7479;SDS011;3781;42.272;22.658;2022-11-06T13:47:50;5.87;;;2.47;;
7479;SDS011;3781;42.272;22.658;2022-11-06T13:50:26;3.53;;;1.97;;
7479;SDS011;3781;42.272;22.658;2022-11-06T13:52:58;4.43;;;2.33;;
7479;SDS011;3781;42.272;22.658;2022-11-06T13:55:35;3.83;;;1.70;;
7479;SDS011;3781;42.272;22.658;2022-11-06T13:58:21;2.63;;;2.03;;
7479;SDS011;3781;42.272;22.658;2022-11-06T14:01:03;3.77;;;2.43;;
7479;SDS011;3781;42.272;22.658;2022-11-06T14:03:44;5.40;;;2.37;;
7479;SDS011;3781;42.272;22.658;2022-11-06T14:06:23;2.43;;;2.10;;
7479;SDS011;3781;42.272;22.658;2022-11-06T14:08:52;5.70;;;3.37;;
7479;SDS011;3781;42.272;22.658;2022-11-06T14:11:24;3.30;;;3.03;;
7479;SDS011;3781;42.272;22.658;2022-11-06T14:13:54;4.83;;;2.60;;
7479;SDS011;3781;42.272;22.658;2022-11-06T14:16:26;9.40;;;2.70;;
7479;SDS011;3781;42.272;22.658;2022-11-06T14:18:55;4.00;;;2.43;;
7479;SDS011;3781;42.272;22.658;2022-11-06T14:26:55;14.60;;;7.47;;
7479;SDS011;3781;42.272;22.658;2022-11-06T14:38:16;3.73;;;2.33;;
7479;SDS011;3781;42.272;22.658;2022-11-06T14:44:26;2.90;;;1.93;;
7479;SDS011;3781;42.272;22.658;2022-11-06T14:47:18;3.77;;;3.40;;
7479;SDS011;3781;42.272;22.658;2022-11-06T14:49:57;3.80;;;2.60;;
7479;SDS011;3781;42.272;22.658;2022-11-06T14:52:28;8.80;;;4.40;;
7479;SDS011;3781;42.272;22.658;2022-11-06T14:55:06;6.73;;;3.87;;
7479;SDS011;3781;42.272;22.658;2022-11-06T14:57:35;5.07;;;3.20;;
7479;SDS011;3781;42.272;22.658;2022-11-06T15:00:11;10.20;;;3.73;;
7479;SDS011;3781;42.272;22.658;2022-11-06T15:02:40;7.40;;;3.07;;
7479;SDS011;3781;42.272;22.658;2022-11-06T15:05:13;5.17;;;3.10;;
7479;SDS011;3781;42.272;22.658;2022-11-06T15:07:54;1.50;;;1.40;;
7479;SDS011;3781;42.272;22.658;2022-11-06T15:13:23;5.10;;;1.87;;
7479;SDS011;3781;42.272;22.658;2022-11-06T15:16:08;1.40;;;1.30;;
7479;SDS011;3781;42.272;22.658;2022-11-06T15:18:37;1.57;;;1.47;;
7479;SDS011;3781;42.272;22.658;2022-11-06T15:21:14;1.70;;;1.47;;
7479;SDS011;3781;42.272;22.658;2022-11-06T15:23:56;5.60;;;1.47;;
7479;SDS011;3781;42.272;22.658;2022-11-06T15:26:31;2.00;;;1.90;;
7479;SDS011;3781;42.272;22.658;2022-11-06T15:29:03;3.73;;;1.80;;
7479;SDS011;3781;42.272;22.658;2022-11-06T15:31:38;3.53;;;2.13;;
7479;SDS011;3781;42.272;22.658;2022-11-06T15:34:11;2.17;;;1.43;;
7479;SDS011;3781;42.272;22.658;2022-11-06T15:36:46;3.13;;;1.87;;
7479;SDS011;3781;42.272;22.658;2022-11-06T15:39:31;1.37;;;1.17;;
7479;SDS011;3781;42.272;22.658;2022-11-06T15:42:06;1.70;;;1.43;;
7479;SDS011;3781;42.272;22.658;2022-11-06T15:44:36;2.63;;;2.43;;
7479;SDS011;3781;42.272;22.658;2022-11-06T15:47:17;4.80;;;1.97;;
7479;SDS011;3781;42.272;22.658;2022-11-06T15:49:46;1.40;;;1.37;;